createdAt,value
2019-03-29T00:00:09.006Z,35.30
2019-03-29T00:02:37.031Z,34.90
2019-03-29T00:05:05.296Z,31.93
2019-03-29T00:07:39.589Z,34.90
2019-03-29T00:10:03.893Z,32.73
2019-03-29T00:12:32.368Z,35.50
2019-03-29T00:15:00.771Z,34.13
2019-03-29T00:17:28.761Z,35.73
2019-03-29T00:19:57.960Z,34.60
2019-03-29T00:22:26.054Z,35.10
2019-03-29T00:24:54.530Z,34.87
2019-03-29T00:27:22.910Z,34.53
2019-03-29T00:29:50.962Z,34.70
2019-03-29T00:32:18.979Z,35.77
2019-03-29T00:34:47.459Z,35.03
2019-03-29T00:37:15.480Z,37.50
2019-03-29T00:40:02.421Z,35.67
2019-03-29T00:42:30.653Z,33.80
2019-03-29T00:44:58.859Z,33.17
2019-03-29T00:47:26.830Z,34.40
2019-03-29T00:49:55.245Z,35.00
2019-03-29T00:52:23.345Z,34.60
2019-03-29T00:54:51.281Z,35.73
2019-03-29T00:57:19.254Z,31.07
2019-03-29T00:59:47.731Z,34.00
2019-03-29T01:02:16.154Z,34.27
2019-03-29T01:04:44.796Z,34.43
2019-03-29T01:07:12.732Z,33.70
2019-03-29T01:09:40.961Z,34.63
2019-03-29T01:12:09.528Z,31.63
2019-03-29T01:14:37.810Z,32.60
2019-03-29T01:17:06.163Z,33.60
2019-03-29T01:19:34.509Z,31.43
2019-03-29T01:22:02.842Z,34.87
2019-03-29T01:24:30.980Z,31.53
2019-03-29T01:26:59.143Z,33.60
2019-03-29T01:29:27.017Z,31.63
2019-03-29T01:31:55.246Z,33.27
2019-03-29T01:34:23.245Z,33.17
2019-03-29T01:36:54.870Z,30.00
2019-03-29T01:39:23.617Z,32.07
2019-03-29T01:41:51.515Z,31.60
2019-03-29T01:44:20.565Z,29.43
2019-03-29T01:46:49.581Z,32.70
2019-03-29T01:49:18.613Z,30.40
2019-03-29T01:51:46.550Z,32.60
2019-03-29T01:54:14.421Z,29.90
2019-03-29T01:56:43.008Z,30.40
2019-03-29T01:59:10.998Z,30.87
2019-03-29T02:01:39.416Z,29.50
2019-03-29T02:04:08.224Z,32.37
2019-03-29T02:06:37.081Z,28.67
2019-03-29T02:09:06.033Z,29.90
2019-03-29T02:11:33.763Z,31.90
2019-03-29T02:14:02.002Z,29.97
2019-03-29T02:16:30.310Z,29.10
2019-03-29T02:18:58.904Z,30.20
2019-03-29T02:21:26.900Z,30.83
2019-03-29T02:23:56.269Z,29.77
2019-03-29T02:26:24.929Z,29.67
2019-03-29T02:28:53.155Z,29.27
2019-03-29T02:31:25.389Z,29.00
2019-03-29T02:33:51.660Z,28.47
2019-03-29T02:36:20.090Z,31.77
2019-03-29T02:38:55.517Z,30.07
2019-03-29T02:41:19.053Z,28.97
2019-03-29T02:43:48.008Z,28.00
2019-03-29T02:46:16.690Z,28.90
2019-03-29T02:48:45.270Z,29.80
2019-03-29T02:51:13.272Z,30.40
2019-03-29T02:53:42.227Z,29.17
2019-03-29T02:56:10.219Z,30.07
2019-03-29T02:58:38.715Z,27.77
2019-03-29T03:01:06.790Z,28.60
2019-03-29T03:03:35.197Z,28.70
2019-03-29T03:06:03.331Z,29.00
2019-03-29T03:08:33.048Z,27.87
2019-03-29T03:11:01.340Z,27.13
2019-03-29T03:13:29.375Z,27.73
2019-03-29T03:15:57.510Z,28.90
2019-03-29T03:18:26.642Z,27.90
2019-03-29T03:20:55.353Z,28.40
2019-03-29T03:23:23.473Z,28.90
2019-03-29T03:25:52.299Z,27.80
2019-03-29T03:28:20.604Z,29.97
2019-03-29T03:30:48.993Z,27.73
2019-03-29T03:33:16.988Z,26.70
2019-03-29T03:35:44.875Z,25.90
2019-03-29T03:38:12.982Z,27.03
2019-03-29T03:40:40.955Z,27.33
2019-03-29T03:43:09.272Z,24.90
2019-03-29T03:45:37.897Z,27.47
2019-03-29T03:48:06.303Z,27.77
2019-03-29T03:50:38.880Z,26.53
2019-03-29T03:53:07.115Z,27.33
2019-03-29T03:55:36.991Z,27.30
2019-03-29T03:58:05.430Z,25.20
2019-03-29T04:00:54.087Z,27.40
2019-03-29T04:03:22.690Z,25.63
2019-03-29T04:05:52.195Z,25.37
2019-03-29T04:08:20.447Z,22.20
2019-03-29T04:10:49.076Z,24.57
2019-03-29T04:13:17.719Z,24.83
2019-03-29T04:15:46.013Z,26.30
2019-03-29T04:18:16.007Z,26.30
2019-03-29T04:20:44.182Z,25.97
2019-03-29T04:23:12.455Z,27.50
2019-03-29T04:25:40.435Z,23.73
2019-03-29T04:28:09.485Z,25.27
2019-03-29T04:30:37.706Z,26.20
2019-03-29T04:33:10.758Z,25.10
2019-03-29T04:35:37.432Z,24.67
2019-03-29T04:38:06.404Z,25.27
2019-03-29T04:40:35.757Z,25.00
2019-03-29T04:43:04.621Z,25.93
2019-03-29T04:45:34.307Z,24.83
2019-03-29T04:48:04.076Z,25.50
2019-03-29T04:50:33.595Z,25.80
2019-03-29T04:53:03.454Z,24.40
2019-03-29T04:55:34.489Z,24.70
2019-03-29T04:58:05.788Z,25.07
2019-03-29T05:00:37.099Z,25.03
2019-03-29T05:03:05.381Z,25.30
2019-03-29T05:05:35.167Z,23.43
2019-03-29T05:08:03.824Z,21.63
2019-03-29T05:10:32.763Z,22.80
2019-03-29T05:13:02.579Z,21.97
2019-03-29T05:15:31.862Z,22.97
2019-03-29T05:18:01.208Z,22.30
2019-03-29T05:20:30.477Z,23.23
2019-03-29T05:22:58.870Z,23.13
2019-03-29T05:25:31.245Z,23.33
2019-03-29T05:28:06.918Z,22.27
2019-03-29T05:30:35.760Z,21.60
2019-03-29T05:33:12.680Z,23.30
2019-03-29T05:35:47.124Z,24.23
2019-03-29T05:38:21.550Z,25.57
2019-03-29T05:40:50.825Z,23.07
2019-03-29T05:43:19.337Z,24.37
2019-03-29T05:45:51.594Z,32.40
2019-03-29T05:48:22.823Z,24.77
2019-03-29T05:50:51.906Z,24.07
2019-03-29T05:53:20.806Z,25.50
2019-03-29T05:55:49.457Z,22.50
2019-03-29T05:58:17.827Z,23.00
2019-03-29T06:00:46.072Z,21.37
2019-03-29T06:03:14.709Z,23.57
2019-03-29T06:05:42.944Z,21.00
2019-03-29T06:08:11.109Z,21.63
2019-03-29T06:10:48.786Z,22.83
2019-03-29T06:13:10.048Z,28.77
2019-03-29T06:15:38.391Z,24.20
2019-03-29T06:18:06.715Z,22.60
2019-03-29T06:20:36.073Z,22.43
2019-03-29T06:23:04.307Z,21.70
2019-03-29T06:25:32.552Z,21.30
2019-03-29T06:28:00.540Z,19.60
2019-03-29T06:30:30.419Z,21.33
2019-03-29T06:32:58.882Z,20.37
2019-03-29T06:35:31.035Z,19.40
2019-03-29T06:38:00.391Z,21.23
2019-03-29T06:40:28.561Z,19.90
2019-03-29T06:42:56.787Z,20.17
2019-03-29T06:45:25.209Z,20.17
2019-03-29T06:47:53.641Z,20.20
2019-03-29T06:50:21.873Z,19.10
2019-03-29T06:52:50.836Z,18.30
2019-03-29T06:55:19.552Z,17.70
2019-03-29T06:57:48.112Z,17.50
2019-03-29T07:00:16.715Z,16.87
2019-03-29T07:02:45.978Z,17.40
2019-03-29T07:05:14.819Z,17.50
2019-03-29T07:07:44.640Z,15.03
2019-03-29T07:10:13.371Z,14.63
2019-03-29T07:12:41.563Z,14.20
2019-03-29T07:15:10.094Z,15.23
2019-03-29T07:17:38.539Z,17.10
2019-03-29T07:20:07.710Z,15.10
2019-03-29T07:22:36.831Z,15.03
2019-03-29T07:25:05.207Z,14.67
2019-03-29T07:27:44.973Z,13.60
2019-03-29T07:30:05.094Z,14.30
2019-03-29T07:32:33.527Z,13.70
2019-03-29T07:35:01.710Z,13.40
2019-03-29T07:37:29.959Z,14.07
2019-03-29T07:39:58.729Z,13.50
2019-03-29T07:42:26.870Z,13.37
2019-03-29T07:44:55.090Z,13.37
2019-03-29T07:47:23.678Z,13.30
2019-03-29T07:49:51.965Z,13.67
2019-03-29T07:52:21.464Z,13.67
2019-03-29T07:54:49.891Z,12.70
2019-03-29T07:57:18.154Z,12.50
2019-03-29T07:59:46.914Z,12.00
2019-03-29T08:02:15.195Z,12.77
2019-03-29T08:04:46.368Z,12.67
2019-03-29T08:07:26.322Z,12.03
2019-03-29T08:09:43.450Z,12.97
2019-03-29T08:12:11.572Z,11.27
2019-03-29T08:14:40.155Z,11.30
2019-03-29T08:17:08.173Z,11.97
2019-03-29T08:19:37.498Z,11.80
2019-03-29T08:22:06.135Z,13.30
2019-03-29T08:24:34.493Z,11.97
2019-03-29T08:27:03.005Z,10.13
2019-03-29T08:29:31.589Z,9.60
2019-03-29T08:31:59.679Z,9.60
2019-03-29T08:34:28.826Z,9.60
2019-03-29T08:36:56.760Z,10.50
2019-03-29T08:39:28.196Z,10.50
2019-03-29T08:42:00.289Z,9.03
2019-03-29T08:44:27.446Z,8.80
2019-03-29T08:46:56.009Z,7.80
2019-03-29T08:49:23.866Z,9.10
2019-03-29T08:51:51.493Z,8.50
2019-03-29T08:54:19.938Z,7.70
2019-03-29T08:56:48.229Z,8.30
2019-03-29T08:59:17.610Z,7.80
2019-03-29T09:01:45.940Z,9.37
2019-03-29T09:04:13.948Z,8.40
2019-03-29T09:06:52.625Z,7.63
2019-03-29T09:09:13.209Z,7.50
2019-03-29T09:11:42.126Z,7.50
2019-03-29T09:14:10.788Z,8.13
2019-03-29T09:16:39.470Z,7.80
2019-03-29T09:19:14.705Z,7.60
2019-03-29T09:21:43.065Z,7.43
2019-03-29T09:24:21.880Z,7.00
2019-03-29T09:26:41.576Z,7.60
2019-03-29T09:29:10.148Z,8.37
2019-03-29T09:31:38.548Z,7.40
2019-03-29T09:34:07.456Z,8.30
2019-03-29T09:36:36.197Z,7.60
2019-03-29T09:39:06.353Z,8.00
2019-03-29T09:41:35.933Z,8.33
2019-03-29T09:44:04.177Z,8.37
2019-03-29T09:46:33.195Z,8.50
2019-03-29T09:49:02.025Z,8.30
2019-03-29T09:51:30.989Z,7.27
2019-03-29T09:53:58.879Z,6.63
2019-03-29T09:56:38.786Z,7.40
2019-03-29T09:58:58.392Z,8.00
2019-03-29T10:01:26.907Z,7.30
2019-03-29T10:03:55.330Z,7.80
2019-03-29T10:06:24.023Z,7.73
2019-03-29T10:08:54.249Z,7.17
2019-03-29T10:11:22.351Z,6.00
2019-03-29T10:13:51.215Z,6.10
2019-03-29T10:16:19.585Z,6.43
2019-03-29T10:18:47.541Z,6.87
2019-03-29T10:21:17.368Z,6.87
2019-03-29T10:23:45.780Z,6.83
2019-03-29T10:26:13.979Z,6.90
2019-03-29T10:28:42.140Z,6.50
2019-03-29T10:31:11.548Z,6.20
2019-03-29T10:33:39.939Z,5.90
2019-03-29T10:36:07.994Z,6.60
2019-03-29T10:38:37.007Z,6.90
2019-03-29T10:41:05.368Z,6.33
2019-03-29T10:43:33.501Z,7.40
2019-03-29T10:46:01.870Z,7.33
2019-03-29T10:48:30.200Z,5.80
2019-03-29T10:50:59.245Z,8.40
2019-03-29T10:53:28.968Z,20.87
2019-03-29T10:55:57.540Z,17.93
2019-03-29T10:58:25.909Z,15.20
2019-03-29T11:00:54.701Z,13.23
2019-03-29T11:03:23.145Z,11.00
2019-03-29T11:05:51.774Z,9.70
2019-03-29T11:08:20.362Z,8.90
2019-03-29T11:10:49.310Z,7.90
2019-03-29T11:13:17.513Z,7.07
2019-03-29T11:15:46.509Z,7.40
2019-03-29T11:18:14.889Z,7.10
2019-03-29T11:20:43.373Z,5.90
2019-03-29T11:23:11.788Z,5.10
2019-03-29T11:25:39.978Z,4.20
2019-03-29T11:28:08.608Z,4.40
2019-03-29T11:30:42.431Z,3.87
2019-03-29T11:33:07.209Z,3.53
2019-03-29T11:35:36.168Z,4.07
2019-03-29T11:38:04.578Z,4.53
2019-03-29T11:40:32.854Z,4.00
2019-03-29T11:43:01.115Z,3.57
2019-03-29T11:45:29.391Z,3.60
2019-03-29T11:48:08.179Z,3.43
2019-03-29T11:50:29.330Z,5.67
2019-03-29T11:52:57.562Z,4.77
2019-03-29T11:55:25.883Z,4.23
2019-03-29T11:57:55.985Z,3.80
2019-03-29T12:00:34.407Z,3.97
2019-03-29T12:03:02.906Z,4.00
2019-03-29T12:05:35.964Z,4.00
2019-03-29T12:08:03.854Z,4.27
2019-03-29T12:10:32.451Z,3.47
2019-03-29T12:13:00.927Z,4.83
2019-03-29T12:15:29.817Z,4.73
2019-03-29T12:17:58.368Z,4.77
2019-03-29T12:20:26.551Z,6.80
2019-03-29T12:22:54.954Z,7.07
2019-03-29T12:25:23.105Z,6.33
2019-03-29T12:27:51.301Z,5.57
2019-03-29T12:30:31.326Z,4.77
2019-03-29T12:32:50.090Z,4.63
2019-03-29T12:35:18.409Z,4.97
2019-03-29T12:37:48.840Z,4.80
2019-03-29T12:40:17.683Z,4.03
2019-03-29T12:42:46.494Z,4.00
2019-03-29T12:45:14.582Z,3.93
2019-03-29T12:47:42.843Z,3.67
2019-03-29T12:50:11.532Z,4.80
2019-03-29T12:52:40.522Z,4.70
2019-03-29T12:55:08.654Z,5.10
2019-03-29T12:57:38.957Z,4.90
2019-03-29T13:00:08.388Z,5.23
2019-03-29T13:02:36.705Z,4.23
2019-03-29T13:05:07.270Z,3.63
2019-03-29T13:07:35.549Z,3.90
2019-03-29T13:10:04.696Z,3.77
2019-03-29T13:12:34.170Z,3.67
2019-03-29T13:15:08.747Z,3.33
2019-03-29T13:17:43.492Z,3.30
2019-03-29T13:20:11.738Z,4.30
2019-03-29T13:22:40.033Z,3.87
2019-03-29T13:25:08.565Z,4.90
2019-03-29T13:27:38.250Z,4.70
2019-03-29T13:30:08.114Z,4.60
2019-03-29T13:32:36.803Z,3.57
2019-03-29T13:35:06.440Z,4.27
2019-03-29T13:37:34.681Z,3.60
2019-03-29T13:40:03.589Z,3.43
2019-03-29T13:42:32.818Z,4.87
2019-03-29T13:45:01.152Z,4.37
2019-03-29T13:47:30.761Z,4.10
2019-03-29T13:49:59.314Z,4.47
2019-03-29T13:52:27.741Z,4.60
2019-03-29T13:54:56.214Z,4.50
2019-03-29T13:57:24.503Z,4.93
2019-03-29T13:59:52.607Z,3.47
2019-03-29T14:02:22.166Z,4.40
2019-03-29T14:04:50.756Z,3.50
2019-03-29T14:07:19.768Z,4.30
2019-03-29T14:09:48.274Z,4.07
2019-03-29T14:12:16.270Z,4.50
2019-03-29T14:14:45.099Z,4.10
2019-03-29T14:17:13.362Z,4.30
2019-03-29T14:19:42.755Z,3.87
2019-03-29T14:22:11.753Z,4.17
2019-03-29T14:24:40.256Z,3.57
2019-03-29T14:27:08.190Z,3.37
2019-03-29T14:29:36.670Z,3.60
2019-03-29T14:32:05.089Z,3.50
2019-03-29T14:34:33.772Z,3.03
2019-03-29T14:37:02.386Z,3.77
2019-03-29T14:39:31.189Z,4.43
2019-03-29T14:41:59.420Z,3.90
2019-03-29T14:44:28.225Z,3.30
2019-03-29T14:46:57.773Z,3.80
2019-03-29T14:49:26.267Z,4.50
2019-03-29T14:51:54.502Z,4.50
2019-03-29T14:54:23.059Z,3.67
2019-03-29T14:56:51.450Z,3.53
2019-03-29T14:59:19.681Z,3.60
2019-03-29T15:01:47.750Z,3.67
2019-03-29T15:04:16.050Z,8.50
2019-03-29T15:06:44.155Z,9.17
2019-03-29T15:09:12.355Z,7.00
2019-03-29T15:11:43.826Z,5.20
2019-03-29T15:14:12.963Z,5.50
2019-03-29T15:16:45.073Z,12.97
2019-03-29T15:19:13.778Z,10.30
2019-03-29T15:21:43.667Z,7.80
2019-03-29T15:24:12.301Z,5.47
2019-03-29T15:26:40.627Z,4.80
2019-03-29T15:29:09.576Z,4.10
2019-03-29T15:31:38.629Z,4.30
2019-03-29T15:34:08.226Z,2.93
2019-03-29T15:36:37.145Z,3.13
2019-03-29T15:39:06.038Z,2.80
2019-03-29T15:41:34.454Z,2.73
2019-03-29T15:44:02.837Z,2.77
2019-03-29T15:46:31.493Z,2.07
2019-03-29T15:49:07.722Z,1.43
2019-03-29T15:51:36.245Z,2.20
2019-03-29T15:54:05.928Z,2.43
2019-03-29T15:56:34.718Z,2.50
2019-03-29T15:59:03.511Z,2.03
2019-03-29T16:01:32.971Z,1.97
2019-03-29T16:04:01.890Z,1.80
2019-03-29T16:06:30.064Z,2.00
2019-03-29T16:08:58.569Z,2.43
2019-03-29T16:11:27.370Z,2.30
2019-03-29T16:13:56.523Z,2.20
2019-03-29T16:16:25.802Z,2.20
2019-03-29T16:18:54.371Z,1.90
2019-03-29T16:21:22.795Z,1.60
2019-03-29T16:23:51.208Z,1.97
2019-03-29T16:26:19.349Z,1.93
2019-03-29T16:28:47.646Z,1.97
2019-03-29T16:31:17.404Z,1.93
2019-03-29T16:33:46.670Z,1.80
2019-03-29T16:36:15.547Z,1.90
2019-03-29T16:38:44.086Z,2.07
2019-03-29T16:41:12.888Z,16.07
2019-03-29T16:43:41.255Z,37.50
2019-03-29T16:46:09.669Z,24.23
2019-03-29T16:48:37.854Z,14.20
2019-03-29T16:51:06.464Z,8.40
2019-03-29T16:53:35.430Z,5.60
2019-03-29T16:56:03.878Z,5.53
2019-03-29T16:58:32.506Z,3.70
2019-03-29T17:01:01.067Z,3.70
2019-03-29T17:03:29.425Z,2.83
2019-03-29T17:06:06.649Z,2.47
2019-03-29T17:08:35.711Z,2.50
2019-03-29T17:11:04.213Z,2.43
2019-03-29T17:13:34.030Z,2.20
2019-03-29T17:16:03.326Z,1.87
2019-03-29T17:18:32.178Z,1.90
2019-03-29T17:21:01.715Z,1.80
2019-03-29T17:23:31.060Z,1.70
2019-03-29T17:25:59.290Z,1.43
2019-03-29T17:28:27.671Z,1.60
2019-03-29T17:30:59.409Z,1.90
2019-03-29T17:33:27.971Z,1.97
2019-03-29T17:35:56.777Z,1.70
2019-03-29T17:38:24.950Z,1.67
2019-03-29T17:40:53.878Z,1.90
2019-03-29T17:43:22.271Z,2.30
2019-03-29T17:45:50.850Z,1.80
2019-03-29T17:48:19.138Z,1.90
2019-03-29T17:50:47.702Z,1.50
2019-03-29T17:53:16.130Z,2.40
2019-03-29T17:55:44.161Z,1.53
2019-03-29T17:58:12.887Z,1.97
2019-03-29T18:00:41.457Z,1.93
2019-03-29T18:03:09.855Z,10.13
2019-03-29T18:05:38.263Z,9.17
2019-03-29T18:08:06.732Z,7.83
2019-03-29T18:10:35.698Z,6.17
2019-03-29T18:13:04.729Z,5.43
2019-03-29T18:15:33.087Z,4.93
2019-03-29T18:18:01.619Z,4.30
2019-03-29T18:20:30.896Z,4.60
2019-03-29T18:22:59.857Z,4.80
2019-03-29T18:25:28.151Z,5.00
2019-03-29T18:27:56.536Z,4.20
2019-03-29T18:30:36.765Z,4.70
2019-03-29T18:33:05.102Z,4.53
2019-03-29T18:35:33.612Z,4.87
2019-03-29T18:38:01.916Z,5.70
2019-03-29T18:40:29.814Z,5.83
2019-03-29T18:42:58.552Z,4.87
2019-03-29T18:45:27.604Z,6.00
2019-03-29T18:47:55.910Z,6.27
2019-03-29T18:50:24.025Z,5.10
2019-03-29T18:52:52.338Z,5.80
2019-03-29T18:55:20.575Z,5.80
2019-03-29T18:57:48.968Z,5.53
2019-03-29T19:00:26.731Z,7.50
2019-03-29T19:02:54.990Z,5.93
2019-03-29T19:05:24.133Z,7.07
2019-03-29T19:07:52.714Z,7.50
2019-03-29T19:10:21.210Z,5.70
2019-03-29T19:12:49.673Z,6.90
2019-03-29T19:15:18.040Z,7.33
2019-03-29T19:17:46.685Z,6.30
2019-03-29T19:20:26.530Z,6.27
2019-03-29T19:22:44.808Z,5.43
2019-03-29T19:25:13.400Z,5.83
2019-03-29T19:27:41.502Z,5.83
2019-03-29T19:30:11.042Z,6.63
2019-03-29T19:32:39.803Z,6.30
2019-03-29T19:35:09.027Z,6.57
2019-03-29T19:37:38.327Z,6.20
2019-03-29T19:40:06.925Z,6.07
2019-03-29T19:42:34.917Z,7.50
2019-03-29T19:45:04.098Z,6.27
2019-03-29T19:47:33.349Z,6.93
2019-03-29T19:50:03.371Z,7.40
2019-03-29T19:52:32.653Z,6.30
2019-03-29T19:55:01.427Z,6.07
2019-03-29T19:57:30.524Z,6.83
2019-03-29T19:59:59.131Z,6.73
2019-03-29T20:02:26.927Z,6.93
2019-03-29T20:04:55.581Z,7.03
2019-03-29T20:07:24.435Z,6.80
2019-03-29T20:09:53.875Z,6.23
2019-03-29T20:12:24.985Z,7.70
2019-03-29T20:14:52.929Z,7.10
2019-03-29T20:17:27.278Z,7.43
2019-03-29T20:19:56.668Z,5.93
2019-03-29T20:22:24.806Z,6.40
2019-03-29T20:24:53.786Z,7.23
2019-03-29T20:27:22.004Z,8.30
2019-03-29T20:29:51.010Z,7.83
2019-03-29T20:32:19.550Z,8.23
2019-03-29T20:34:47.788Z,8.80
2019-03-29T20:37:16.546Z,8.70
2019-03-29T20:39:44.873Z,10.77
2019-03-29T20:42:13.158Z,9.17
2019-03-29T20:44:41.063Z,8.07
2019-03-29T20:47:09.958Z,8.57
2019-03-29T20:49:38.607Z,8.43
2019-03-29T20:52:07.060Z,8.93
2019-03-29T20:54:35.077Z,8.90
2019-03-29T20:57:03.374Z,8.20
2019-03-29T20:59:32.258Z,8.00
2019-03-29T21:02:00.901Z,8.33
2019-03-29T21:04:29.795Z,9.27
2019-03-29T21:06:58.216Z,7.87
2019-03-29T21:09:26.763Z,7.63
2019-03-29T21:11:55.446Z,8.30
2019-03-29T21:14:23.838Z,8.13
2019-03-29T21:16:52.195Z,7.77
2019-03-29T21:19:20.514Z,8.27
2019-03-29T21:21:48.603Z,8.33
2019-03-29T21:24:17.205Z,8.43
2019-03-29T21:26:45.560Z,9.00
2019-03-29T21:29:14.026Z,8.30
2019-03-29T21:31:42.304Z,10.20
2019-03-29T21:34:10.280Z,9.50
2019-03-29T21:36:38.445Z,8.10
2019-03-29T21:39:09.166Z,8.50
2019-03-29T21:41:37.800Z,8.60
2019-03-29T21:44:06.002Z,9.10
2019-03-29T21:46:34.246Z,8.20
2019-03-29T21:49:02.279Z,8.27
2019-03-29T21:51:30.886Z,8.33
2019-03-29T21:53:59.131Z,7.90
2019-03-29T21:56:27.623Z,8.40
2019-03-29T21:58:56.073Z,8.03
2019-03-29T22:01:25.153Z,7.80
2019-03-29T22:03:53.376Z,8.20
2019-03-29T22:06:23.047Z,8.90
2019-03-29T22:08:51.870Z,7.97
2019-03-29T22:11:20.213Z,8.33
2019-03-29T22:13:48.450Z,8.87
2019-03-29T22:16:16.577Z,8.90
2019-03-29T22:18:45.290Z,8.20
2019-03-29T22:21:14.305Z,24.47
2019-03-29T22:23:42.575Z,18.17
2019-03-29T22:26:11.008Z,12.73
2019-03-29T22:28:39.633Z,8.90
2019-03-29T22:31:08.311Z,9.23
2019-03-29T22:33:36.631Z,9.00
2019-03-29T22:36:04.779Z,10.30
2019-03-29T22:38:32.814Z,7.47
2019-03-29T22:41:01.712Z,8.40
2019-03-29T22:43:30.543Z,7.67
2019-03-29T22:45:59.970Z,8.87
2019-03-29T22:48:28.094Z,8.00
2019-03-29T22:50:57.349Z,6.60
2019-03-29T22:53:25.586Z,6.53
2019-03-29T22:55:53.903Z,7.17
2019-03-29T22:58:21.888Z,6.83
2019-03-29T23:00:52.753Z,7.13
2019-03-29T23:03:21.026Z,6.23
2019-03-29T23:05:49.851Z,6.53
2019-03-29T23:08:17.985Z,5.87
2019-03-29T23:10:46.457Z,6.87
2019-03-29T23:13:14.405Z,7.00
2019-03-29T23:15:42.755Z,7.23
2019-03-29T23:18:11.539Z,6.00
2019-03-29T23:20:40.309Z,7.60
2019-03-29T23:23:08.573Z,6.63
2019-03-29T23:25:37.056Z,7.00
2019-03-29T23:28:05.076Z,6.60
2019-03-29T23:30:36.761Z,6.00
2019-03-29T23:33:04.940Z,6.53
2019-03-29T23:35:32.863Z,7.63
2019-03-29T23:38:01.124Z,6.60
2019-03-29T23:40:29.998Z,6.67
2019-03-29T23:42:58.001Z,6.00
2019-03-29T23:45:27.400Z,5.80
2019-03-29T23:47:56.034Z,6.30
2019-03-29T23:50:24.005Z,6.40
2019-03-29T23:52:52.119Z,5.60
2019-03-29T23:55:20.552Z,4.90
2019-03-29T23:57:48.458Z,5.20
